createdAt,value
2023-01-12T00:03:05.260Z,7.53
2023-01-12T00:08:10.298Z,5.57
2023-01-12T00:13:14.028Z,5.43
2023-01-12T00:18:17.753Z,10.30
2023-01-12T00:23:25.833Z,7.85
2023-01-12T00:28:29.673Z,15.57
2023-01-12T00:33:34.854Z,8.68
2023-01-12T00:38:40.654Z,12.68
2023-01-12T00:44:01.939Z,9.23
2023-01-12T00:49:06.027Z,8.95
2023-01-12T00:54:11.119Z,8.23
2023-01-12T00:59:14.843Z,15.07
2023-01-12T01:04:18.518Z,8.13
2023-01-12T01:09:23.531Z,13.15
2023-01-12T01:14:27.292Z,10.93
2023-01-12T01:19:31.015Z,9.38
2023-01-12T01:24:36.013Z,9.75
2023-01-12T01:29:39.796Z,13.88
2023-01-12T01:34:44.046Z,10.30
2023-01-12T01:39:49.161Z,6.30
2023-01-12T01:44:55.763Z,3.50
2023-01-12T01:50:02.146Z,11.45
2023-01-12T01:55:11.875Z,20.33
2023-01-12T02:00:16.789Z,9.48
2023-01-12T02:05:24.832Z,13.00
2023-01-12T02:10:30.036Z,10.23
2023-01-12T02:16:11.094Z,13.45
2023-01-12T02:21:36.533Z,11.18
2023-01-12T02:27:08.936Z,13.13
2023-01-12T02:32:20.125Z,12.00
2023-01-12T02:37:35.727Z,6.57
2023-01-12T02:42:42.711Z,11.63
2023-01-12T02:47:52.999Z,12.98
2023-01-12T02:53:00.535Z,10.07
2023-01-12T02:58:06.413Z,7.97
2023-01-12T03:03:12.169Z,11.95
2023-01-12T03:08:21.250Z,12.27
2023-01-12T03:13:28.209Z,5.60
2023-01-12T03:18:36.379Z,8.82
2023-01-12T03:23:46.344Z,8.63
2023-01-12T03:28:54.506Z,9.20
2023-01-12T03:34:00.084Z,9.57
2023-01-12T03:39:15.103Z,7.18
2023-01-12T03:44:28.319Z,9.13
2023-01-12T03:49:39.251Z,6.60
2023-01-12T03:54:47.557Z,4.43
2023-01-12T03:59:51.232Z,7.05
2023-01-12T04:04:56.294Z,8.73
2023-01-12T04:09:59.943Z,10.77
2023-01-12T04:15:03.658Z,4.38
2023-01-12T04:20:10.958Z,9.93
2023-01-12T04:25:17.104Z,11.77
2023-01-12T04:30:24.571Z,16.25
2023-01-12T04:35:29.764Z,20.15
2023-01-12T04:40:33.554Z,9.82
2023-01-12T04:45:39.798Z,7.05
2023-01-12T04:50:45.424Z,9.07
2023-01-12T04:55:49.823Z,11.25
2023-01-12T05:00:53.544Z,4.97
2023-01-12T05:05:58.660Z,12.00
2023-01-12T05:11:02.757Z,7.50
2023-01-12T05:16:11.394Z,8.63
2023-01-12T05:21:18.079Z,4.63
2023-01-12T05:26:21.884Z,8.02
2023-01-12T05:31:27.972Z,6.82
2023-01-12T05:36:33.148Z,6.75
2023-01-12T05:41:36.857Z,5.93
2023-01-12T05:46:41.246Z,10.07
2023-01-12T05:51:46.239Z,4.28
2023-01-12T05:56:50.045Z,8.90
2023-01-12T06:01:53.766Z,7.68
2023-01-12T06:06:58.965Z,2.10
2023-01-12T06:12:21.826Z,4.85
2023-01-12T06:17:25.497Z,9.98
2023-01-12T06:22:30.584Z,6.40
2023-01-12T06:27:35.490Z,5.28
2023-01-12T06:32:41.552Z,4.22
2023-01-12T06:37:46.756Z,10.20
2023-01-12T06:42:50.511Z,4.90
2023-01-12T06:47:55.468Z,3.08
2023-01-12T06:53:01.704Z,4.15
2023-01-12T06:58:05.876Z,3.33
2023-01-12T07:03:16.743Z,8.15
2023-01-12T07:08:21.838Z,3.80
2023-01-12T07:13:25.539Z,9.13
2023-01-12T07:18:29.826Z,3.90
2023-01-12T07:23:37.219Z,3.33
2023-01-12T07:28:41.164Z,7.40
2023-01-12T07:33:44.842Z,3.95
2023-01-12T07:38:49.993Z,4.65
2023-01-12T07:43:53.663Z,3.45
2023-01-12T07:48:57.436Z,2.15
2023-01-12T07:54:05.313Z,4.10
2023-01-12T07:59:09.084Z,6.45
2023-01-12T08:04:12.804Z,4.13
2023-01-12T08:09:17.909Z,2.15
2023-01-12T08:14:28.102Z,4.85
2023-01-12T08:19:37.223Z,1.42
2023-01-12T08:24:48.060Z,3.28
2023-01-12T08:29:55.827Z,1.65
2023-01-12T08:35:02.206Z,3.33
2023-01-12T08:40:09.679Z,5.17
2023-01-12T08:45:13.738Z,8.68
2023-01-12T08:50:17.467Z,2.50
2023-01-12T08:55:22.517Z,4.05
2023-01-12T09:00:26.231Z,3.88
2023-01-12T09:05:29.916Z,6.00
2023-01-12T09:10:35.043Z,3.75
2023-01-12T09:15:38.734Z,3.67
2023-01-12T09:20:42.403Z,5.13
2023-01-12T09:25:47.427Z,4.60
2023-01-12T09:30:51.149Z,4.43
2023-01-12T09:35:54.851Z,2.83
2023-01-12T09:41:02.625Z,1.75
2023-01-12T09:46:23.848Z,1.52
2023-01-12T09:51:33.317Z,3.70
2023-01-12T09:56:44.446Z,6.10
2023-01-12T10:01:48.204Z,2.47
2023-01-12T10:06:52.268Z,2.92
2023-01-12T10:12:07.012Z,1.45
2023-01-12T10:17:38.701Z,2.22
2023-01-12T10:22:49.585Z,2.72
2023-01-12T10:27:57.928Z,1.10
2023-01-12T10:33:11.163Z,0.98
2023-01-12T10:38:21.883Z,4.75
2023-01-12T10:43:32.354Z,1.75
2023-01-12T10:48:36.659Z,2.08
2023-01-12T10:53:46.175Z,1.33
2023-01-12T10:58:57.355Z,2.55
2023-01-12T11:04:06.885Z,0.75
2023-01-12T11:09:23.202Z,1.20
2023-01-12T11:14:30.729Z,1.03
2023-01-12T11:19:38.383Z,1.13
2023-01-12T11:24:47.521Z,0.88
2023-01-12T11:29:59.029Z,0.90
2023-01-12T11:35:09.690Z,0.80
2023-01-12T11:40:24.594Z,3.13
2023-01-12T11:45:35.576Z,1.40
2023-01-12T11:50:40.904Z,2.65
2023-01-12T11:55:58.026Z,1.10
2023-01-12T12:06:26.284Z,3.38
2023-01-12T12:11:40.311Z,3.80
2023-01-12T12:16:54.523Z,1.95
2023-01-12T12:22:08.918Z,2.17
2023-01-12T12:27:21.879Z,1.25
2023-01-12T12:32:34.839Z,1.83
2023-01-12T12:37:51.787Z,1.13
2023-01-12T12:43:22.290Z,1.52
2023-01-12T12:48:34.463Z,3.40
2023-01-12T12:53:41.890Z,1.15
2023-01-12T12:58:47.824Z,0.60
2023-01-12T13:03:54.428Z,0.52
2023-01-12T13:08:59.582Z,0.90
2023-01-12T13:14:06.842Z,0.63
2023-01-12T13:19:30.084Z,1.05
2023-01-12T13:24:41.710Z,0.93
2023-01-12T13:29:45.593Z,1.33
2023-01-12T13:34:50.934Z,1.85
2023-01-12T13:40:05.127Z,3.63
2023-01-12T13:45:11.602Z,1.40
2023-01-12T13:50:21.634Z,1.43
2023-01-12T13:55:28.083Z,2.15
2023-01-12T14:00:33.044Z,1.08
2023-01-12T14:06:00.309Z,1.08
2023-01-12T14:11:18.497Z,1.10
2023-01-12T14:16:41.093Z,0.85
2023-01-12T14:21:57.762Z,1.13
2023-01-12T14:27:16.733Z,1.40
2023-01-12T14:32:24.743Z,3.95
2023-01-12T14:37:34.053Z,2.72
2023-01-12T14:42:55.086Z,2.50
2023-01-12T14:48:20.951Z,2.00
2023-01-12T14:53:34.741Z,1.80
2023-01-12T14:58:39.337Z,6.07
2023-01-12T15:03:48.575Z,3.38
2023-01-12T15:09:01.461Z,2.30
2023-01-12T15:14:07.399Z,3.30
2023-01-12T15:19:28.799Z,2.22
2023-01-12T15:24:54.410Z,2.28
2023-01-12T15:29:58.804Z,1.20
2023-01-12T15:35:03.449Z,2.92
2023-01-12T15:40:13.442Z,1.60
2023-01-12T15:45:32.924Z,1.52
2023-01-12T15:50:39.264Z,2.83
2023-01-12T15:55:44.330Z,2.87
2023-01-12T16:00:48.440Z,1.70
2023-01-12T16:05:52.302Z,1.08
2023-01-12T16:11:13.633Z,3.30
2023-01-12T16:16:17.925Z,4.05
2023-01-12T16:21:24.001Z,5.45
2023-01-12T16:26:30.192Z,2.63
2023-01-12T16:31:34.023Z,2.28
2023-01-12T16:36:37.924Z,2.38
2023-01-12T16:41:43.064Z,1.83
2023-01-12T16:46:48.686Z,1.60
2023-01-12T16:51:52.410Z,2.95
2023-01-12T16:56:58.870Z,2.85
2023-01-12T17:02:07.743Z,2.03
2023-01-12T17:07:12.436Z,3.70
2023-01-12T17:12:17.618Z,2.35
2023-01-12T17:17:21.407Z,2.95
2023-01-12T17:22:25.491Z,4.50
2023-01-12T17:27:30.654Z,4.20
2023-01-12T17:32:34.625Z,2.85
2023-01-12T17:37:38.467Z,3.38
2023-01-12T17:43:02.247Z,13.82
2023-01-12T17:48:06.808Z,7.40
2023-01-12T17:53:10.651Z,7.93
2023-01-12T17:58:19.284Z,6.57
2023-01-12T18:03:23.762Z,5.80
2023-01-12T18:08:27.784Z,6.38
2023-01-12T18:13:33.168Z,5.10
2023-01-12T18:18:37.821Z,5.95
2023-01-12T18:23:41.860Z,4.32
2023-01-12T18:28:47.092Z,6.53
2023-01-12T18:33:51.769Z,5.25
2023-01-12T18:38:56.054Z,4.72
2023-01-12T18:44:02.255Z,3.05
2023-01-12T18:49:06.005Z,4.13
2023-01-12T18:54:12.229Z,3.47
2023-01-12T18:59:17.568Z,3.50
2023-01-12T19:04:31.619Z,5.35
2023-01-12T19:09:38.595Z,5.45
2023-01-12T19:15:01.165Z,3.60
2023-01-12T19:20:07.271Z,6.70
2023-01-12T19:25:31.967Z,3.72
2023-01-12T19:30:37.562Z,3.33
2023-01-12T19:35:41.823Z,4.70
2023-01-12T19:40:48.876Z,5.55
2023-01-12T19:45:57.597Z,4.95
2023-01-12T19:51:10.293Z,2.53
2023-01-12T19:56:14.757Z,2.83
2023-01-12T20:01:23.169Z,4.35
2023-01-12T20:06:26.960Z,2.40
2023-01-12T20:11:30.822Z,3.03
2023-01-12T20:16:35.982Z,3.13
2023-01-12T20:21:39.842Z,5.53
2023-01-12T20:26:43.892Z,4.38
2023-01-12T20:31:50.075Z,1.70
2023-01-12T20:36:53.974Z,2.85
2023-01-12T20:41:57.822Z,3.75
2023-01-12T20:47:03.073Z,3.60
2023-01-12T20:52:06.845Z,5.50
2023-01-12T20:57:11.321Z,2.75
2023-01-12T21:02:19.539Z,5.00
2023-01-12T21:07:23.323Z,3.88
2023-01-12T21:12:27.829Z,6.75
2023-01-12T21:17:33.094Z,3.05
2023-01-12T21:22:37.034Z,4.28
2023-01-12T21:27:40.782Z,4.97
2023-01-12T21:32:46.588Z,3.15
2023-01-12T21:37:51.311Z,3.65
2023-01-12T21:43:11.858Z,2.67
2023-01-12T21:48:19.185Z,3.47
2023-01-12T21:53:23.635Z,3.58
2023-01-12T21:58:28.667Z,3.40
2023-01-12T22:03:33.869Z,3.67
2023-01-12T22:08:38.856Z,3.90
2023-01-12T22:13:44.213Z,5.35
2023-01-12T22:18:51.130Z,5.85
2023-01-12T22:23:54.940Z,2.25
2023-01-12T22:28:58.655Z,13.35
2023-01-12T22:34:05.509Z,6.95
2023-01-12T22:39:09.337Z,10.10
2023-01-12T22:44:13.183Z,6.70
2023-01-12T22:49:18.237Z,9.77
2023-01-12T22:54:22.056Z,8.13
2023-01-12T22:59:25.916Z,10.27
2023-01-12T23:04:31.017Z,8.90
2023-01-12T23:09:34.814Z,11.35
2023-01-12T23:14:38.527Z,13.00
2023-01-12T23:19:45.064Z,12.30
2023-01-12T23:24:48.741Z,12.95
2023-01-12T23:29:52.560Z,16.13
2023-01-12T23:34:57.747Z,17.73
2023-01-12T23:40:01.503Z,10.77
2023-01-12T23:45:05.884Z,23.67
2023-01-12T23:50:12.636Z,26.08
2023-01-12T23:55:16.571Z,11.00
